Time;durP1;ratioP1;P1;durP2;ratioP2;P2;SDS_P1;SDS_P2;PMS_P1;PMS_P2;Temp;Humidity;BMP_temperature;BMP_pressure;BME280_temperature;BME280_humidity;BME280_pressure;Samples;Min_cycle;Max_cycle;Signal;HPM_P1;HPM_P2
2022/12/13 00:01:16;;;;;;;17.17;12.13;;;2.40;40.40;;;;;;4994737;28;20179;-49
2022/12/13 00:03:42;;;;;;;17.17;11.25;;;2.50;40.90;;;;;;4994534;28;20592;-49
2022/12/13 00:06:09;;;;;;;15.57;10.50;;;2.50;40.80;;;;;;4994762;28;20764;-49
2022/12/13 00:08:35;;;;;;;21.60;10.73;;;2.40;40.10;;;;;;4994900;28;20233;-49
2022/12/13 00:11:05;;;;;;;14.07;9.85;;;2.50;40.70;;;;;;4994623;28;20182;-49
2022/12/13 00:13:31;;;;;;;18.10;11.98;;;2.40;40.30;;;;;;4994287;28;20241;-49
2022/12/13 00:16:00;;;;;;;16.23;11.02;;;2.40;40.30;;;;;;4994552;28;20178;-49
2022/12/13 00:18:26;;;;;;;17.45;10.48;;;2.40;40.10;;;;;;4994420;28;20174;-49
2022/12/13 00:20:52;;;;;;;15.32;10.18;;;2.40;39.90;;;;;;4994776;28;20185;-49
2022/12/13 00:23:18;;;;;;;17.48;11.13;;;2.40;40.30;;;;;;4994190;28;20671;-49
2022/12/13 00:25:44;;;;;;;13.88;9.50;;;2.40;39.70;;;;;;4994447;28;20196;-48
2022/12/13 00:28:10;;;;;;;18.07;9.77;;;2.40;40.20;;;;;;4994293;28;20584;-49
2022/12/13 00:30:38;;;;;;;13.47;8.97;;;2.40;40.20;;;;;;4994148;28;20434;-49
2022/12/13 00:33:05;;;;;;;16.08;10.57;;;2.40;39.50;;;;;;4994056;28;20472;-49
2022/12/13 00:35:32;;;;;;;16.15;9.60;;;2.30;39.30;;;;;;4994298;28;20183;-48
2022/12/13 00:37:58;;;;;;;17.95;11.55;;;2.30;39.70;;;;;;4994220;28;20198;-48
2022/12/13 00:40:23;;;;;;;16.67;11.00;;;2.30;39.90;;;;;;4994046;28;20305;-49
2022/12/13 00:42:49;;;;;;;16.10;9.70;;;2.30;40.00;;;;;;4993880;28;20188;-49
2022/12/13 00:45:15;;;;;;;13.13;8.50;;;2.40;40.20;;;;;;4994213;28;20547;-49
2022/12/13 00:47:41;;;;;;;16.13;10.30;;;2.40;40.30;;;;;;4994149;28;20667;-49
2022/12/13 00:50:07;;;;;;;25.03;13.13;;;2.40;40.00;;;;;;4993839;28;20866;-49
2022/12/13 00:52:33;;;;;;;18.67;9.45;;;2.40;39.80;;;;;;4992967;28;20214;-48
2022/12/13 00:54:59;;;;;;;16.42;10.55;;;2.50;40.00;;;;;;4976676;28;20631;-48
2022/12/13 00:57:25;;;;;;;16.27;9.00;;;2.40;39.10;;;;;;4993963;28;20174;-49
2022/12/13 00:59:51;;;;;;;11.70;8.23;;;2.40;38.80;;;;;;4993716;28;20244;-48
2022/12/13 01:02:17;;;;;;;13.50;9.20;;;2.30;39.50;;;;;;4993647;28;20182;-49
2022/12/13 01:04:43;;;;;;;15.40;9.07;;;2.30;38.90;;;;;;4993777;28;20251;-49
2022/12/13 01:07:08;;;;;;;18.10;9.30;;;2.20;38.80;;;;;;4993774;28;20189;-48
2022/12/13 01:09:34;;;;;;;15.07;9.83;;;2.20;39.10;;;;;;4993605;28;20285;-49
2022/12/13 01:12:05;;;;;;;16.17;10.60;;;2.20;39.50;;;;;;4993119;28;20639;-49
2022/12/13 01:14:33;;;;;;;15.93;9.85;;;2.30;39.70;;;;;;4993792;28;20178;-48
2022/12/13 01:16:59;;;;;;;13.02;8.98;;;2.40;39.60;;;;;;4993682;28;20231;-48
2022/12/13 01:19:27;;;;;;;13.80;8.60;;;2.40;39.70;;;;;;4993632;28;20195;-48
2022/12/13 01:22:02;;;;;;;20.15;11.23;;;2.40;39.50;;;;;;4993502;28;20410;-48
2022/12/13 01:24:29;;;;;;;14.23;9.13;;;2.40;39.20;;;;;;4993490;28;20583;-48
2022/12/13 01:26:56;;;;;;;12.98;8.95;;;2.30;39.10;;;;;;4993247;28;20703;-48
2022/12/13 01:29:22;;;;;;;14.68;10.50;;;2.30;39.30;;;;;;4993377;28;20208;-48
2022/12/13 01:31:48;;;;;;;17.65;11.30;;;2.30;39.00;;;;;;4993072;28;20305;-48
2022/12/13 01:34:17;;;;;;;18.45;10.18;;;2.30;39.30;;;;;;4993254;28;20193;-47
2022/12/13 01:36:44;;;;;;;17.23;10.43;;;2.40;39.50;;;;;;4993077;28;20169;-48
2022/12/13 01:39:12;;;;;;;16.73;10.38;;;2.40;39.60;;;;;;4992992;28;20312;-47
2022/12/13 01:41:38;;;;;;;13.85;9.13;;;2.40;39.30;;;;;;4993053;28;20189;-48
2022/12/13 01:44:45;;;;;;;15.27;9.75;;;2.40;38.60;;;;;;4993055;28;20193;-48
2022/12/13 01:47:12;;;;;;;17.77;10.95;;;2.40;39.10;;;;;;4992774;28;20177;-48
2022/12/13 01:49:38;;;;;;;19.67;11.05;;;2.30;39.20;;;;;;4992748;28;20261;-47
2022/12/13 01:52:07;;;;;;;15.15;10.18;;;2.40;39.30;;;;;;4992921;28;20220;-48
2022/12/13 01:54:37;;;;;;;19.48;11.93;;;2.30;39.00;;;;;;4992832;28;20526;-48
2022/12/13 01:57:05;;;;;;;16.35;11.13;;;2.40;39.10;;;;;;4993049;28;20182;-48
2022/12/13 01:59:34;;;;;;;18.20;9.80;;;2.30;38.90;;;;;;4992764;28;20312;-48
2022/12/13 02:02:00;;;;;;;13.68;9.93;;;2.30;38.90;;;;;;4992376;28;20183;-49
2022/12/13 02:04:33;;;;;;;19.23;12.07;;;2.30;39.10;;;;;;4992747;28;20220;-48
2022/12/13 02:06:59;;;;;;;19.90;11.40;;;2.30;39.10;;;;;;4992826;28;20189;-48
2022/12/13 02:09:25;;;;;;;17.83;11.43;;;2.30;39.10;;;;;;4992846;28;20206;-48
2022/12/13 02:11:52;;;;;;;17.05;9.75;;;2.30;39.10;;;;;;4992432;28;20222;-48
2022/12/13 02:14:18;;;;;;;14.80;10.35;;;2.30;39.20;;;;;;4992621;28;20178;-48
2022/12/13 02:17:00;;;;;;;17.47;11.47;;;2.40;39.40;;;;;;4992494;28;20237;-48
2022/12/13 02:19:40;;;;;;;14.40;10.10;;;2.40;39.40;;;;;;4992508;28;20221;-48
2022/12/13 02:22:31;;;;;;;19.77;11.43;;;2.40;39.30;;;;;;4992418;28;20205;-48
2022/12/13 02:25:07;;;;;;;15.45;9.88;;;2.40;39.20;;;;;;4992680;28;20309;-48
2022/12/13 02:27:50;;;;;;;17.20;10.90;;;2.40;39.00;;;;;;4992540;28;20176;-47
2022/12/13 02:30:33;;;;;;;14.63;10.90;;;2.30;38.90;;;;;;4992630;28;20200;-48
2022/12/13 02:33:21;;;;;;;18.40;11.40;;;2.30;39.00;;;;;;4992224;28;20281;-48
2022/12/13 02:35:59;;;;;;;20.80;11.13;;;2.30;39.00;;;;;;4992620;28;20175;-47
2022/12/13 02:38:55;;;;;;;15.13;9.57;;;2.30;39.10;;;;;;4992661;28;20166;-48
2022/12/13 02:41:33;;;;;;;16.23;9.82;;;2.30;39.20;;;;;;4992695;28;20197;-48
2022/12/13 02:44:25;;;;;;;14.15;10.30;;;2.30;39.30;;;;;;4992413;28;20182;-48
2022/12/13 02:46:56;;;;;;;14.63;9.50;;;2.30;39.50;;;;;;4992493;28;20228;-48
2022/12/13 02:49:24;;;;;;;15.05;9.30;;;2.40;39.50;;;;;;4992213;28;20242;-48
2022/12/13 02:51:51;;;;;;;13.77;8.80;;;2.40;39.30;;;;;;4992018;28;20209;-48
2022/12/13 02:54:17;;;;;;;14.38;9.98;;;2.40;38.80;;;;;;4992075;28;20213;-48
2022/12/13 02:56:53;;;;;;;17.10;10.67;;;2.30;39.00;;;;;;4992202;28;20202;-49
2022/12/13 02:59:19;;;;;;;15.35;9.82;;;2.30;38.50;;;;;;4992395;28;20429;-49
2022/12/13 03:02:08;;;;;;;15.53;10.50;;;2.30;39.00;;;;;;4992433;28;20188;-48
2022/12/13 03:06:28;;;;;;;16.10;9.18;;;2.30;39.10;;;;;;4978364;28;20193;-48
2022/12/13 03:07:34;;;;;;;12.18;7.95;;;2.30;39.10;;;;;;4992032;28;20221;-48
2022/12/13 03:10:15;;;;;;;14.82;9.57;;;2.30;39.00;;;;;;4992332;28;20210;-48
2022/12/13 03:15:35;;;;;;;14.57;9.15;;;2.30;39.10;;;;;;4992758;28;20599;-48
2022/12/13 03:18:14;;;;;;;12.63;9.07;;;2.30;39.10;;;;;;4995654;28;20178;-49
2022/12/13 03:20:48;;;;;;;10.43;7.60;;;2.30;39.30;;;;;;4995472;28;20665;-48
2022/12/13 03:23:15;;;;;;;14.85;8.95;;;2.30;39.00;;;;;;4995350;28;20173;-49
2022/12/13 03:25:42;;;;;;;11.90;8.30;;;2.20;38.80;;;;;;4995781;28;20190;-48
2022/12/13 03:28:08;;;;;;;17.77;8.73;;;2.20;39.10;;;;;;4995479;28;20206;-48
2022/12/13 03:30:34;;;;;;;14.03;8.50;;;2.30;39.30;;;;;;4995476;28;20235;-48
2022/12/13 03:33:00;;;;;;;15.57;9.57;;;2.30;39.10;;;;;;4995164;28;20206;-48
2022/12/13 03:35:26;;;;;;;13.18;8.27;;;2.30;39.30;;;;;;4995307;28;20188;-48
2022/12/13 03:37:52;;;;;;;13.73;8.07;;;2.30;38.90;;;;;;4995174;28;20651;-48
2022/12/13 03:40:19;;;;;;;15.40;9.50;;;2.30;38.80;;;;;;4995376;28;20206;-48
2022/12/13 03:42:46;;;;;;;13.63;8.65;;;2.30;38.90;;;;;;4995049;28;20289;-48
2022/12/13 03:45:12;;;;;;;12.65;8.18;;;2.30;39.00;;;;;;4995128;28;20254;-48
2022/12/13 03:47:38;;;;;;;14.05;8.73;;;2.30;39.10;;;;;;4995128;28;20709;-47
2022/12/13 03:50:04;;;;;;;15.10;9.43;;;2.30;39.10;;;;;;4994851;28;20305;-48
2022/12/13 03:52:30;;;;;;;15.73;8.95;;;2.30;39.00;;;;;;4994686;28;20205;-48
2022/12/13 03:54:56;;;;;;;13.23;9.50;;;2.30;38.90;;;;;;4995267;28;20186;-48
2022/12/13 03:57:21;;;;;;;16.60;9.90;;;2.30;39.00;;;;;;4995129;28;20258;-48
2022/12/13 03:59:47;;;;;;;13.83;9.20;;;2.30;38.80;;;;;;4994894;28;20430;-48
2022/12/13 04:02:13;;;;;;;17.33;10.13;;;2.30;38.80;;;;;;4994622;28;20431;-48
2022/12/13 04:04:39;;;;;;;12.90;9.60;;;2.30;38.50;;;;;;4994849;28;20213;-48
2022/12/13 04:07:04;;;;;;;17.27;10.73;;;2.20;38.20;;;;;;4994728;28;20253;-48
2022/12/13 04:09:30;;;;;;;16.67;10.10;;;2.10;38.10;;;;;;4994691;28;20209;-48
2022/12/13 04:14:40;;;;;;;14.18;10.57;;;1.90;37.50;;;;;;4994982;28;20392;-48
2022/12/13 04:17:06;;;;;;;18.67;10.70;;;1.70;37.70;;;;;;4994814;28;20177;-48
2022/12/13 04:19:31;;;;;;;15.63;9.13;;;1.60;37.90;;;;;;4994697;28;20272;-48
2022/12/13 04:21:57;;;;;;;12.67;9.77;;;1.50;38.20;;;;;;4994296;28;20185;-48
2022/12/13 04:24:24;;;;;;;20.67;11.67;;;1.50;38.10;;;;;;4994659;28;20262;-48
2022/12/13 04:26:50;;;;;;;13.43;8.55;;;1.40;38.10;;;;;;4993767;28;20590;-48
2022/12/13 04:29:16;;;;;;;18.67;11.93;;;1.40;38.20;;;;;;4993821;28;20201;-48
2022/12/13 04:31:41;;;;;;;15.43;9.50;;;1.40;38.10;;;;;;4994446;28;20183;-48
2022/12/13 04:34:10;;;;;;;16.73;11.13;;;1.30;38.10;;;;;;4994255;28;20426;-48
2022/12/13 04:36:35;;;;;;;12.02;9.27;;;1.30;38.00;;;;;;4994491;28;20178;-48
2022/12/13 04:39:04;;;;;;;12.17;7.57;;;1.20;37.80;;;;;;4994353;28;20248;-48
2022/12/13 04:41:35;;;;;;;13.65;9.45;;;1.20;37.90;;;;;;4994219;28;20401;-48
2022/12/13 04:44:01;;;;;;;14.93;10.10;;;1.20;38.10;;;;;;4993935;28;20532;-47
2022/12/13 04:46:27;;;;;;;14.93;10.00;;;1.20;38.30;;;;;;4994053;28;20593;-48
2022/12/13 04:48:52;;;;;;;16.30;10.20;;;1.10;38.40;;;;;;4994035;28;20217;-47
2022/12/13 04:51:18;;;;;;;14.43;10.50;;;1.20;38.40;;;;;;4994202;28;20180;-48
2022/12/13 04:53:44;;;;;;;17.80;10.63;;;1.10;38.40;;;;;;4993844;28;20236;-48
2022/12/13 04:56:10;;;;;;;12.63;10.60;;;1.10;38.50;;;;;;4993949;28;20411;-48
2022/12/13 04:58:36;;;;;;;22.97;12.93;;;1.20;38.60;;;;;;4993720;28;20214;-48
2022/12/13 05:01:04;;;;;;;17.67;11.17;;;1.10;38.60;;;;;;4993747;28;20413;-48
2022/12/13 05:03:30;;;;;;;18.50;11.73;;;1.10;38.60;;;;;;4993382;28;20182;-48
2022/12/13 05:05:56;;;;;;;15.27;11.63;;;1.10;39.00;;;;;;4993922;28;20187;-48
2022/12/13 05:08:21;;;;;;;16.00;10.07;;;1.10;38.50;;;;;;4993671;28;20229;-47
2022/12/13 05:10:47;;;;;;;15.93;10.00;;;1.50;38.80;;;;;;4993679;28;20202;-48
2022/12/13 05:13:13;;;;;;;19.03;11.40;;;1.10;38.80;;;;;;4993180;28;21161;-48
2022/12/13 05:15:39;;;;;;;18.53;12.03;;;1.10;38.80;;;;;;4993387;28;20218;-48
2022/12/13 05:18:06;;;;;;;19.43;12.40;;;1.10;38.60;;;;;;4993580;28;20178;-48
2022/12/13 05:20:34;;;;;;;20.02;13.15;;;1.00;38.50;;;;;;4993593;28;20196;-48
2022/12/13 05:23:00;;;;;;;24.17;14.55;;;1.00;38.60;;;;;;4993229;28;20184;-48
2022/12/13 05:25:26;;;;;;;19.03;12.33;;;1.00;38.70;;;;;;4993218;28;20184;-48
2022/12/13 05:27:52;;;;;;;17.95;10.57;;;1.00;38.80;;;;;;4993168;28;20414;-48
2022/12/13 05:30:19;;;;;;;17.60;12.48;;;1.10;38.70;;;;;;4993001;28;20209;-48
2022/12/13 05:32:45;;;;;;;21.50;12.98;;;1.10;38.70;;;;;;4993117;28;20557;-48
2022/12/13 05:35:16;;;;;;;25.35;14.00;;;1.00;38.50;;;;;;4993164;28;20636;-48
2022/12/13 05:37:42;;;;;;;18.73;11.85;;;1.00;39.20;;;;;;4975644;28;20198;-47
2022/12/13 05:40:08;;;;;;;25.93;14.90;;;1.00;38.80;;;;;;4992864;28;20671;-48
2022/12/13 05:42:37;;;;;;;23.25;14.23;;;1.00;39.00;;;;;;4993005;28;20259;-48
2022/12/13 05:45:04;;;;;;;24.02;13.77;;;1.10;39.00;;;;;;4992767;28;20188;-47
2022/12/13 05:47:30;;;;;;;24.30;13.85;;;1.10;38.90;;;;;;4992841;28;20182;-48
2022/12/13 05:49:55;;;;;;;24.27;14.53;;;1.10;38.90;;;;;;4992799;28;20316;-48
2022/12/13 05:52:21;;;;;;;25.23;13.97;;;1.10;38.60;;;;;;4992571;28;20201;-48
2022/12/13 05:54:47;;;;;;;25.47;16.33;;;1.00;38.50;;;;;;4993083;28;20176;-48
2022/12/13 05:57:14;;;;;;;23.80;12.90;;;0.90;38.50;;;;;;4992743;28;20407;-48
2022/12/13 05:59:40;;;;;;;20.80;13.07;;;0.80;38.40;;;;;;4992578;28;20222;-48
2022/12/13 06:02:05;;;;;;;21.85;13.30;;;0.80;38.50;;;;;;4992651;28;20207;-50
2022/12/13 06:04:31;;;;;;;25.47;12.50;;;0.70;38.60;;;;;;4992811;28;20533;-48
2022/12/13 06:06:57;;;;;;;25.20;14.87;;;0.70;38.70;;;;;;4992838;28;20180;-48
2022/12/13 06:09:23;;;;;;;30.93;13.83;;;0.60;38.40;;;;;;4992741;28;20197;-48
2022/12/13 06:11:49;;;;;;;25.40;15.30;;;0.60;38.30;;;;;;4992633;28;20267;-48
2022/12/13 06:14:15;;;;;;;22.53;12.60;;;0.50;38.40;;;;;;4992373;28;20477;-48
2022/12/13 06:16:41;;;;;;;20.40;11.85;;;0.40;38.40;;;;;;4975461;28;20776;-48
2022/12/13 06:19:07;;;;;;;23.37;13.50;;;0.40;38.40;;;;;;4992508;28;20201;-48
2022/12/13 06:21:33;;;;;;;20.23;13.55;;;0.40;38.40;;;;;;4992529;28;20182;-48
2022/12/13 06:23:59;;;;;;;21.10;13.63;;;0.30;38.50;;;;;;4992260;28;20666;-48
2022/12/13 06:26:25;;;;;;;20.90;13.07;;;0.30;38.40;;;;;;4992732;28;20189;-48
2022/12/13 06:28:51;;;;;;;25.23;15.03;;;0.20;38.10;;;;;;4992344;28;20942;-48
2022/12/13 06:31:17;;;;;;;20.07;12.10;;;0.10;38.10;;;;;;4974961;28;20431;-48
2022/12/13 06:33:43;;;;;;;22.17;12.85;;;0.00;38.00;;;;;;4992196;28;20207;-47
2022/12/13 06:36:09;;;;;;;26.42;14.20;;;-0.10;37.90;;;;;;4992426;28;20613;-48
2022/12/13 06:38:35;;;;;;;24.42;13.75;;;-0.20;38.10;;;;;;4992567;28;20172;-48
2022/12/13 06:41:13;;;;;;;24.60;14.30;;;-0.30;38.30;;;;;;4992322;28;20545;-47
2022/12/13 06:43:43;;;;;;;22.15;11.55;;;-0.30;38.60;;;;;;4992140;28;20414;-48
2022/12/13 06:46:09;;;;;;;21.75;11.82;;;-0.30;38.50;;;;;;4992573;28;20184;-47
2022/12/13 06:48:35;;;;;;;18.80;12.50;;;-0.40;38.10;;;;;;4992296;28;20179;-47
2022/12/13 06:51:02;;;;;;;22.80;12.40;;;-0.40;38.10;;;;;;4993830;28;20191;-48
2022/12/13 06:53:28;;;;;;;22.30;11.75;;;-0.50;38.00;;;;;;4995770;28;20971;-48
2022/12/13 06:55:54;;;;;;;24.88;11.90;;;-0.60;38.00;;;;;;4996148;28;20237;-48
2022/12/13 06:58:20;;;;;;;20.58;12.43;;;-0.60;38.30;;;;;;4995997;28;20659;-47
2022/12/13 07:00:46;;;;;;;23.50;11.47;;;-0.60;38.20;;;;;;4995963;28;20234;-47
2022/12/13 07:03:11;;;;;;;25.67;14.47;;;-0.70;37.80;;;;;;4995598;28;20184;-47
2022/12/13 07:05:38;;;;;;;20.53;12.90;;;-0.70;37.90;;;;;;4995879;28;20242;-47
2022/12/13 07:08:04;;;;;;;16.02;11.00;;;-0.80;38.00;;;;;;4996077;28;20183;-47
2022/12/13 07:10:31;;;;;;;17.80;12.75;;;-0.80;38.20;;;;;;4995562;28;20203;-47
2022/12/13 07:12:56;;;;;;;18.60;10.90;;;-0.80;38.10;;;;;;4995684;28;20287;-48
2022/12/13 07:15:22;;;;;;;17.67;10.40;;;-0.80;37.80;;;;;;4995908;28;20580;-48
2022/12/13 07:17:49;;;;;;;20.38;11.20;;;-0.90;37.70;;;;;;4995860;28;20176;-47
2022/12/13 07:20:17;;;;;;;19.77;12.18;;;-0.90;37.70;;;;;;4995752;28;20238;-47
2022/12/13 07:22:43;;;;;;;24.83;14.10;;;-1.00;37.70;;;;;;4995289;28;20187;-47
2022/12/13 07:25:09;;;;;;;18.70;11.40;;;-1.00;37.90;;;;;;4995949;28;20179;-48
2022/12/13 07:27:35;;;;;;;17.80;10.15;;;-1.00;37.80;;;;;;4995711;28;20417;-47
2022/12/13 07:30:02;;;;;;;15.93;10.20;;;-1.00;37.70;;;;;;4995603;28;20203;-47
2022/12/13 07:32:28;;;;;;;17.05;11.30;;;-1.10;37.50;;;;;;4995432;28;20454;-47
2022/12/13 07:34:54;;;;;;;30.77;11.63;;;-1.10;37.70;;;;;;4995288;28;20580;-47
2022/12/13 07:37:19;;;;;;;18.90;11.67;;;-1.10;37.70;;;;;;4995535;28;20403;-47
2022/12/13 07:39:45;;;;;;;25.03;10.73;;;-1.10;37.50;;;;;;4995190;28;20599;-48
2022/12/13 07:42:11;;;;;;;14.27;11.43;;;-1.10;37.80;;;;;;4994956;28;20415;-47
2022/12/13 07:44:37;;;;;;;22.20;12.30;;;-1.10;37.80;;;;;;4995450;28;20233;-47
2022/12/13 07:47:02;;;;;;;21.77;11.93;;;-1.00;38.10;;;;;;4995366;28;20230;-47
2022/12/13 07:49:28;;;;;;;18.90;11.23;;;-1.00;38.30;;;;;;4995041;28;20214;-47
2022/12/13 07:51:54;;;;;;;21.20;12.70;;;-1.00;38.10;;;;;;4994782;28;20910;-47
2022/12/13 07:54:20;;;;;;;26.53;14.00;;;-0.90;38.30;;;;;;4994941;28;20178;-47
2022/12/13 07:56:45;;;;;;;23.80;12.70;;;-0.80;38.40;;;;;;4994943;28;20602;-47
2022/12/13 07:59:11;;;;;;;23.50;12.87;;;-0.80;38.40;;;;;;4995055;28;20493;-47
2022/12/13 08:01:37;;;;;;;21.67;12.43;;;-0.70;38.70;;;;;;4994458;28;20700;-48
2022/12/13 08:04:03;;;;;;;21.73;12.00;;;-0.70;38.70;;;;;;4994663;28;20250;-47
2022/12/13 08:06:33;;;;;;;21.83;12.70;;;-0.70;38.60;;;;;;4994965;28;20184;-47
2022/12/13 08:08:59;;;;;;;19.52;11.55;;;-0.60;38.50;;;;;;4994663;28;20191;-47
2022/12/13 08:11:24;;;;;;;22.03;11.80;;;-0.50;38.60;;;;;;4994723;28;20588;-47
2022/12/13 08:13:52;;;;;;;26.27;12.30;;;-0.50;38.80;;;;;;4994489;28;20253;-48
2022/12/13 08:16:18;;;;;;;23.73;12.30;;;-0.40;38.80;;;;;;4994613;28;20407;-47
2022/12/13 08:18:46;;;;;;;26.73;12.87;;;-0.30;38.80;;;;;;4994506;28;20214;-48
2022/12/13 08:21:12;;;;;;;20.85;11.55;;;-0.20;38.80;;;;;;4994403;28;20191;-47
2022/12/13 08:23:38;;;;;;;21.83;11.95;;;-0.10;38.90;;;;;;4994128;28;20184;-47
2022/12/13 08:26:05;;;;;;;26.80;14.52;;;-0.10;38.90;;;;;;4994421;28;20174;-48
2022/12/13 08:28:33;;;;;;;22.08;13.50;;;0.00;38.60;;;;;;4994417;28;20183;-48
2022/12/13 08:31:07;;;;;;;22.15;11.60;;;0.10;38.80;;;;;;4994419;28;20187;-48
2022/12/13 08:33:35;;;;;;;23.45;11.98;;;0.20;38.70;;;;;;4994222;28;20199;-47
2022/12/13 08:36:14;;;;;;;16.52;10.60;;;0.30;38.50;;;;;;4994485;28;20187;-47
2022/12/13 08:38:40;;;;;;;19.95;12.13;;;0.30;38.10;;;;;;4994093;28;20266;-47
2022/12/13 08:41:06;;;;;;;17.13;10.70;;;0.30;38.00;;;;;;4994252;28;20306;-47
2022/12/13 08:43:32;;;;;;;23.13;12.70;;;0.40;38.40;;;;;;4993882;28;20403;-48
2022/12/13 08:45:57;;;;;;;19.70;11.93;;;0.50;38.10;;;;;;4994065;28;20183;-47
2022/12/13 08:48:23;;;;;;;21.20;11.67;;;0.60;38.00;;;;;;4994046;28;20184;-48
2022/12/13 08:50:49;;;;;;;19.27;12.13;;;0.70;38.00;;;;;;4994021;28;20592;-47
2022/12/13 08:53:14;;;;;;;18.50;11.10;;;0.80;37.60;;;;;;4993591;28;20302;-49
2022/12/13 08:55:40;;;;;;;15.87;11.97;;;0.80;37.30;;;;;;4994222;28;20170;-50
2022/12/13 08:58:07;;;;;;;20.00;11.20;;;0.90;37.30;;;;;;4993763;28;20631;-49
2022/12/13 09:00:34;;;;;;;20.92;10.85;;;1.10;37.20;;;;;;4993725;28;20197;-47
2022/12/13 09:03:02;;;;;;;22.40;14.20;;;1.20;36.80;;;;;;4993410;28;20261;-47
2022/12/13 09:05:28;;;;;;;19.10;12.43;;;1.60;36.60;;;;;;4993691;28;20265;-48
2022/12/13 09:08:01;;;;;;;19.85;12.65;;;1.90;35.80;;;;;;4993750;28;20182;-48
2022/12/13 09:10:28;;;;;;;18.45;10.80;;;2.10;35.50;;;;;;4993480;28;20546;-48
2022/12/13 09:12:56;;;;;;;17.92;9.25;;;2.30;35.20;;;;;;4992860;28;20715;-47
2022/12/13 09:15:21;;;;;;;17.17;12.23;;;2.50;35.30;;;;;;4993444;28;20257;-48
2022/12/13 09:17:47;;;;;;;17.07;10.60;;;2.70;34.90;;;;;;4993689;28;20602;-47
2022/12/13 09:20:13;;;;;;;15.20;11.23;;;2.80;34.50;;;;;;4993550;28;20198;-47
2022/12/13 09:22:39;;;;;;;18.00;11.23;;;3.00;34.00;;;;;;4993049;28;20772;-49
2022/12/13 09:25:05;;;;;;;14.27;9.07;;;3.10;32.80;;;;;;4993238;28;20269;-50
2022/12/13 09:27:31;;;;;;;20.38;11.85;;;3.00;32.30;;;;;;4993308;28;20182;-48
2022/12/13 09:29:57;;;;;;;13.35;10.10;;;3.00;32.90;;;;;;4993347;28;20665;-48
2022/12/13 09:32:24;;;;;;;17.60;10.77;;;3.00;32.60;;;;;;4992894;28;20327;-48
2022/12/13 09:34:50;;;;;;;17.65;11.35;;;3.20;32.40;;;;;;4993095;28;20682;-47
2022/12/13 09:37:16;;;;;;;20.27;10.80;;;3.30;31.30;;;;;;4993097;28;20178;-48
2022/12/13 09:39:42;;;;;;;18.02;10.95;;;3.50;32.30;;;;;;4992987;28;20273;-48
2022/12/13 09:42:34;;;;;;;19.10;11.47;;;4.00;31.60;;;;;;4992815;28;20304;-48
2022/12/13 09:45:02;;;;;;;16.92;10.90;;;4.80;31.30;;;;;;4989194;28;20209;-48
2022/12/13 09:47:48;;;;;;;18.00;10.75;;;5.40;30.40;;;;;;4992879;28;20225;-48
2022/12/13 09:50:31;;;;;;;15.07;10.52;;;5.80;28.10;;;;;;4992693;28;20224;-48
2022/12/13 09:52:58;;;;;;;17.98;11.45;;;5.90;28.20;;;;;;4992505;28;20267;-48
2022/12/13 09:55:28;;;;;;;14.18;10.23;;;5.80;29.00;;;;;;4992797;28;20187;-48
2022/12/13 09:57:54;;;;;;;17.58;10.65;;;5.60;28.90;;;;;;4992915;28;20186;-48
2022/12/13 10:10:26;;;;;;;15.45;9.75;;;7.70;26.00;;;;;;4992414;28;20225;-49
2022/12/13 10:13:08;;;;;;;16.35;11.25;;;7.90;26.80;;;;;;4992389;28;20195;-48
2022/12/13 10:15:37;;;;;;;14.70;10.32;;;8.10;26.10;;;;;;4992515;28;20167;-49
2022/12/13 10:18:05;;;;;;;14.90;9.13;;;7.90;25.70;;;;;;4992868;28;20186;-49
2022/12/13 10:20:33;;;;;;;12.00;9.35;;;7.80;25.90;;;;;;4992395;28;20195;-49
2022/12/13 10:22:59;;;;;;;14.20;10.38;;;7.60;25.80;;;;;;4992512;28;20184;-48
2022/12/13 10:25:44;;;;;;;16.87;10.40;;;7.50;26.10;;;;;;4994960;28;20270;-49
2022/12/13 10:28:10;;;;;;;16.13;10.02;;;7.80;25.80;;;;;;4996601;28;20254;-49
2022/12/13 10:30:41;;;;;;;14.17;9.57;;;8.30;25.60;;;;;;4996382;28;20293;-49
2022/12/13 10:33:27;;;;;;;11.70;8.77;;;8.40;24.50;;;;;;4996182;28;20489;-49
2022/12/13 10:36:15;;;;;;;12.30;8.55;;;8.00;24.50;;;;;;4996484;28;20191;-49
2022/12/13 10:38:44;;;;;;;14.82;9.85;;;7.70;25.10;;;;;;4996452;28;20164;-48
2022/12/13 10:41:34;;;;;;;11.20;8.95;;;7.50;24.80;;;;;;4996580;28;20262;-49
2022/12/13 10:44:16;;;;;;;14.30;10.05;;;7.70;24.90;;;;;;4996083;28;20210;-49
2022/12/13 10:46:48;;;;;;;14.73;10.40;;;7.80;25.30;;;;;;4996035;28;20211;-48
2022/12/13 10:49:23;;;;;;;13.43;8.80;;;7.70;25.20;;;;;;4996063;28;20231;-49
2022/12/13 10:51:50;;;;;;;13.73;9.80;;;7.60;25.10;;;;;;4995981;28;20180;-49
2022/12/13 10:54:31;;;;;;;14.23;9.68;;;7.40;25.00;;;;;;4996136;28;20234;-49
2022/12/13 10:57:01;;;;;;;13.18;8.20;;;7.30;25.70;;;;;;4995924;28;20588;-49
2022/12/13 10:59:31;;;;;;;15.23;9.00;;;7.20;26.30;;;;;;4995870;28;20222;-49
2022/12/13 11:01:58;;;;;;;15.50;10.48;;;7.10;26.70;;;;;;4995956;28;20185;-49
2022/12/13 11:04:32;;;;;;;16.33;9.85;;;7.20;26.30;;;;;;4996110;28;20190;-49
2022/12/13 11:07:19;;;;;;;14.23;9.30;;;7.30;25.60;;;;;;4996128;28;20167;-49
2022/12/13 11:09:45;;;;;;;14.65;9.55;;;7.20;25.40;;;;;;4995717;28;20279;-49
2022/12/13 11:12:15;;;;;;;14.73;9.87;;;6.90;26.50;;;;;;4995433;28;20239;-49
2022/12/13 11:14:55;;;;;;;16.70;9.30;;;6.70;26.30;;;;;;4995688;28;20229;-49
2022/12/13 11:17:25;;;;;;;15.57;10.52;;;6.50;26.80;;;;;;4995980;28;20229;-49
2022/12/13 11:19:54;;;;;;;13.10;8.90;;;6.30;27.00;;;;;;4995445;28;20631;-49
2022/12/13 11:22:29;;;;;;;11.13;7.93;;;6.30;27.50;;;;;;4995502;28;20253;-49
2022/12/13 11:25:06;;;;;;;13.55;8.55;;;6.30;27.40;;;;;;4995495;28;20221;-48
2022/12/13 11:27:44;;;;;;;16.33;10.00;;;6.50;26.80;;;;;;4995828;28;20229;-49
2022/12/13 11:30:16;;;;;;;10.85;7.75;;;7.30;26.30;;;;;;4995395;28;20203;-49
2022/12/13 11:32:48;;;;;;;13.18;7.53;;;8.20;26.40;;;;;;4995120;28;20618;-48
2022/12/13 11:35:23;;;;;;;14.18;9.45;;;8.40;25.40;;;;;;4995229;28;20183;-49
2022/12/13 11:38:07;;;;;;;11.55;8.93;;;8.60;24.90;;;;;;4994746;28;20781;-49
2022/12/13 11:40:41;;;;;;;16.63;9.63;;;8.70;25.10;;;;;;4995238;28;20186;-48
2022/12/13 11:43:30;;;;;;;11.52;8.35;;;8.50;25.40;;;;;;4994982;28;20633;-49
2022/12/13 11:46:00;;;;;;;11.45;8.25;;;8.40;25.10;;;;;;4995140;28;20569;-49
2022/12/13 11:48:35;;;;;;;10.85;7.63;;;8.20;25.00;;;;;;4994702;28;20561;-49
2022/12/13 11:51:04;;;;;;;12.68;9.10;;;8.20;25.00;;;;;;4995163;28;20182;-49
2022/12/13 11:53:42;;;;;;;10.88;7.75;;;8.00;24.50;;;;;;4994670;28;20625;-48
2022/12/13 11:56:30;;;;;;;11.57;7.80;;;7.80;24.60;;;;;;4995187;28;20163;-48
2022/12/13 11:59:06;;;;;;;9.48;7.10;;;7.50;25.00;;;;;;4994813;28;20668;-49
2022/12/13 12:01:52;;;;;;;10.88;7.88;;;7.20;25.20;;;;;;4994876;28;20187;-49
2022/12/13 12:04:48;;;;;;;10.10;7.68;;;7.00;26.10;;;;;;4994768;28;20178;-48
2022/12/13 12:07:16;;;;;;;14.02;7.07;;;6.80;26.30;;;;;;4994896;28;20650;-48
2022/12/13 12:09:50;;;;;;;10.35;7.90;;;6.60;26.50;;;;;;4994714;28;20192;-48
2022/12/13 12:12:35;;;;;;;10.80;7.97;;;6.70;27.30;;;;;;4994304;28;20217;-49
2022/12/13 12:15:06;;;;;;;9.68;6.35;;;6.90;26.90;;;;;;4994841;28;20183;-48
2022/12/13 12:17:33;;;;;;;12.65;7.95;;;7.10;28.50;;;;;;4994535;28;20164;-48
2022/12/13 12:19:59;;;;;;;10.60;8.40;;;7.60;27.40;;;;;;4994555;28;20195;-49
2022/12/13 12:22:37;;;;;;;9.40;6.20;;;8.10;26.30;;;;;;4994447;28;20518;-48
2022/12/13 12:25:25;;;;;;;9.77;7.68;;;8.90;26.80;;;;;;4994816;28;20401;-49
2022/12/13 12:28:18;;;;;;;8.98;6.40;;;9.70;24.60;;;;;;4994353;28;20642;-49
2022/12/13 12:30:59;;;;;;;7.97;5.88;;;9.90;25.20;;;;;;4994640;28;20203;-49
2022/12/13 12:33:50;;;;;;;11.52;6.30;;;10.40;25.20;;;;;;4994225;28;20284;-49
2022/12/13 12:36:37;;;;;;;8.98;7.00;;;11.10;21.00;;;;;;4994320;28;20159;-49
2022/12/13 12:39:38;;;;;;;9.95;7.28;;;11.60;21.90;;;;;;4994076;28;20194;-49
2022/12/13 12:42:30;;;;;;;8.13;6.30;;;12.40;20.30;;;;;;4994162;28;20298;-49
2022/12/13 12:45:16;;;;;;;11.25;8.27;;;13.40;20.30;;;;;;4994166;28;20548;-49
2022/12/13 12:48:00;;;;;;;9.80;7.30;;;14.10;19.40;;;;;;4993455;28;20638;-49
2022/12/13 12:50:50;;;;;;;8.00;6.80;;;14.70;18.50;;;;;;4993696;28;20233;-51
2022/12/13 12:53:49;;;;;;;6.93;6.22;;;15.30;19.00;;;;;;4993678;28;20257;-52
2022/12/13 12:57:12;;;;;;;6.88;6.18;;;15.80;18.30;;;;;;4990368;28;20323;-51
2022/12/13 12:59:57;;;;;;;11.15;7.40;;;16.10;17.50;;;;;;4915012;29;20198;-50
2022/12/13 13:02:37;;;;;;;8.63;6.75;;;15.60;17.90;;;;;;4914380;29;20170;-49
2022/12/13 13:05:28;;;;;;;12.77;7.70;;;14.70;17.40;;;;;;4914568;29;20277;-48
2022/12/13 13:08:12;;;;;;;7.30;6.25;;;13.80;18.60;;;;;;4914640;29;20225;-49
2022/12/13 13:10:40;;;;;;;8.55;6.75;;;12.80;18.90;;;;;;4914267;29;20212;-49